sensor_id;sensor_type;location;lat;lon;timestamp;pressure;altitude;pressure_sealevel;temperature;humidity
34177;BME280;20450;49.074;9.158;2023-05-21T00:02:07;99362.41;;;18.79;69.40
34177;BME280;20450;49.074;9.158;2023-05-21T00:04:34;99362.66;;;18.77;69.55
34177;BME280;20450;49.074;9.158;2023-05-21T00:07:01;99358.28;;;18.76;69.50
34177;BME280;20450;49.074;9.158;2023-05-21T00:09:28;99363.75;;;18.76;69.70
34177;BME280;20450;49.074;9.158;2023-05-21T00:11:55;99362.94;;;18.76;69.44
34177;BME280;20450;49.074;9.158;2023-05-21T00:14:22;99362.66;;;18.77;69.75
34177;BME280;20450;49.074;9.158;2023-05-21T00:16:49;99353.91;;;18.75;69.34
34177;BME280;20450;49.074;9.158;2023-05-21T00:19:18;99354.19;;;18.74;69.58
34177;BME280;20450;49.074;9.158;2023-05-21T00:21:45;99359.94;;;18.72;69.50
34177;BME280;20450;49.074;9.158;2023-05-21T00:24:12;99347.91;;;18.53;70.38
34177;BME280;20450;49.074;9.158;2023-05-21T00:26:39;99341.34;;;18.49;70.71
34177;BME280;20450;49.074;9.158;2023-05-21T00:29:06;99344.06;;;18.49;70.69
34177;BME280;20450;49.074;9.158;2023-05-21T00:31:33;99341.88;;;18.46;70.70
34177;BME280;20450;49.074;9.158;2023-05-21T00:34:02;99335.31;;;18.47;71.03
34177;BME280;20450;49.074;9.158;2023-05-21T00:36:30;99341.88;;;18.46;71.11
34177;BME280;20450;49.074;9.158;2023-05-21T00:38:57;99341.34;;;18.49;70.66
34177;BME280;20450;49.074;9.158;2023-05-21T00:41:24;99335.31;;;18.52;70.43
34177;BME280;20450;49.074;9.158;2023-05-21T00:43:51;99329.84;;;18.52;70.42
34177;BME280;20450;49.074;9.158;2023-05-21T00:46:21;99323.81;;;18.50;70.67
34177;BME280;20450;49.074;9.158;2023-05-21T00:48:49;99324.91;;;18.39;71.13
34177;BME280;20450;49.074;9.158;2023-05-21T00:51:18;99324.88;;;18.34;71.21
34177;BME280;20450;49.074;9.158;2023-05-21T00:53:48;99323.50;;;18.32;71.26
34177;BME280;20450;49.074;9.158;2023-05-21T00:56:17;99322.97;;;18.30;71.60
34177;BME280;20450;49.074;9.158;2023-05-21T00:58:45;99314.47;;;18.26;71.54
34177;BME280;20450;49.074;9.158;2023-05-21T01:01:12;99323.78;;;18.25;71.66
34177;BME280;20450;49.074;9.158;2023-05-21T01:03:41;99316.38;;;18.26;71.76
34177;BME280;20450;49.074;9.158;2023-05-21T01:06:09;99327.59;;;18.24;71.65
34177;BME280;20450;49.074;9.158;2023-05-21T01:08:37;99317.47;;;18.15;72.03
34177;BME280;20450;49.074;9.158;2023-05-21T01:11:08;99327.06;;;18.12;72.04
34177;BME280;20450;49.074;9.158;2023-05-21T01:13:38;99321.00;;;18.05;72.17
34177;BME280;20450;49.074;9.158;2023-05-21T01:16:07;99314.19;;;18.03;72.52
34177;BME280;20450;49.074;9.158;2023-05-21T01:18:36;99315.84;;;18.09;72.36
34177;BME280;20450;49.074;9.158;2023-05-21T01:21:04;99315.28;;;18.12;72.08
34177;BME280;20450;49.074;9.158;2023-05-21T01:23:33;99316.13;;;18.12;71.93
34177;BME280;20450;49.074;9.158;2023-05-21T01:26:00;99313.38;;;18.12;72.13
34177;BME280;20450;49.074;9.158;2023-05-21T01:28:27;99315.56;;;18.10;72.13
34177;BME280;20450;49.074;9.158;2023-05-21T01:30:55;99308.47;;;18.09;72.24
34177;BME280;20450;49.074;9.158;2023-05-21T01:33:34;99310.63;;;18.07;72.27
34177;BME280;20450;49.074;9.158;2023-05-21T01:36:09;99315.84;;;18.09;72.02
34177;BME280;20450;49.074;9.158;2023-05-21T01:38:48;99316.94;;;18.08;72.16
34177;BME280;20450;49.074;9.158;2023-05-21T01:41:24;99315.00;;;18.08;72.21
34177;BME280;20450;49.074;9.158;2023-05-21T01:43:55;99317.72;;;17.98;72.51
34177;BME280;20450;49.074;9.158;2023-05-21T01:46:26;99314.44;;;17.96;72.62
34177;BME280;20450;49.074;9.158;2023-05-21T01:48:56;99311.72;;;17.91;72.86
34177;BME280;20450;49.074;9.158;2023-05-21T01:51:24;99312.78;;;17.90;73.11
34177;BME280;20450;49.074;9.158;2023-05-21T01:53:54;99307.31;;;17.90;73.19
34177;BME280;20450;49.074;9.158;2023-05-21T01:56:21;99314.97;;;17.93;72.98
34177;BME280;20450;49.074;9.158;2023-05-21T01:58:47;99312.50;;;17.92;72.80
34177;BME280;20450;49.074;9.158;2023-05-21T02:05:46;99303.47;;;17.81;73.50
34177;BME280;20450;49.074;9.158;2023-05-21T02:08:13;99304.56;;;17.80;73.53
34177;BME280;20450;49.074;9.158;2023-05-21T02:10:42;99299.09;;;17.80;73.68
34177;BME280;20450;49.074;9.158;2023-05-21T02:13:09;99304.56;;;17.80;73.42
34177;BME280;20450;49.074;9.158;2023-05-21T02:15:36;99310.88;;;17.81;73.53
34177;BME280;20450;49.074;9.158;2023-05-21T02:18:04;99300.75;;;17.76;73.61
34177;BME280;20450;49.074;9.158;2023-05-21T02:20:32;99301.00;;;17.75;73.58
34177;BME280;20450;49.074;9.158;2023-05-21T02:22:59;99301.00;;;17.75;73.67
34177;BME280;20450;49.074;9.158;2023-05-21T02:25:26;99303.47;;;17.76;73.53
34177;BME280;20450;49.074;9.158;2023-05-21T02:27:54;99297.19;;;17.76;73.60
34177;BME280;20450;49.074;9.158;2023-05-21T02:30:21;99297.75;;;17.78;73.37
34177;BME280;20450;49.074;9.158;2023-05-21T02:32:48;99288.97;;;17.76;73.39
34177;BME280;20450;49.074;9.158;2023-05-21T02:35:15;99296.88;;;17.67;73.62
34177;BME280;20450;49.074;9.158;2023-05-21T02:37:42;99295.50;;;17.59;73.91
34177;BME280;20450;49.074;9.158;2023-05-21T02:40:10;99291.94;;;17.54;74.08
34177;BME280;20450;49.074;9.158;2023-05-21T02:42:39;99294.09;;;17.52;74.52
34177;BME280;20450;49.074;9.158;2023-05-21T02:45:11;99298.22;;;17.49;74.50
34177;BME280;20450;49.074;9.158;2023-05-21T02:47:40;99289.75;;;17.51;74.56
34177;BME280;20450;49.074;9.158;2023-05-21T02:50:08;99295.22;;;17.51;74.58
34177;BME280;20450;49.074;9.158;2023-05-21T02:52:42;99295.47;;;17.49;74.45
34177;BME280;20450;49.074;9.158;2023-05-21T02:55:09;99290.56;;;17.46;74.53
34177;BME280;20450;49.074;9.158;2023-05-21T02:57:36;99291.31;;;17.42;74.78
34177;BME280;20450;49.074;9.158;2023-05-21T03:00:04;99293.50;;;17.40;74.89
34177;BME280;20450;49.074;9.158;2023-05-21T03:02:34;99291.56;;;17.35;74.98
34177;BME280;20450;49.074;9.158;2023-05-21T03:05:01;99288.53;;;17.32;75.43
34177;BME280;20450;49.074;9.158;2023-05-21T03:07:32;99291.53;;;17.25;75.29
34177;BME280;20450;49.074;9.158;2023-05-21T03:10:24;99287.13;;;17.19;75.44
34177;BME280;20450;49.074;9.158;2023-05-21T03:12:51;99287.97;;;17.20;75.62
34177;BME280;20450;49.074;9.158;2023-05-21T03:15:18;99290.41;;;17.21;75.66
34177;BME280;20450;49.074;9.158;2023-05-21T03:17:48;99285.22;;;17.20;75.65
34177;BME280;20450;49.074;9.158;2023-05-21T03:20:15;99289.03;;;17.19;75.72
34177;BME280;20450;49.074;9.158;2023-05-21T03:22:42;99284.34;;;17.14;75.74
34177;BME280;20450;49.074;9.158;2023-05-21T03:25:09;99289.81;;;17.14;76.10
34177;BME280;20450;49.074;9.158;2023-05-21T03:27:38;99291.19;;;17.12;75.96
34177;BME280;20450;49.074;9.158;2023-05-21T03:30:51;99282.91;;;16.97;76.50
34177;BME280;20450;49.074;9.158;2023-05-21T03:33:53;99280.59;;;16.74;77.69
34177;BME280;20450;49.074;9.158;2023-05-21T03:36:23;99284.28;;;16.58;78.69
34177;BME280;20450;49.074;9.158;2023-05-21T03:38:51;99285.31;;;16.47;78.82
34177;BME280;20450;49.074;9.158;2023-05-21T03:41:18;99292.31;;;16.43;79.03
34177;BME280;20450;49.074;9.158;2023-05-21T03:43:50;99287.97;;;16.42;79.07
34177;BME280;20450;49.074;9.158;2023-05-21T03:46:19;99290.38;;;16.38;79.32
34177;BME280;20450;49.074;9.158;2023-05-21T03:49:15;99279.47;;;16.38;79.43
34177;BME280;20450;49.074;9.158;2023-05-21T03:51:42;99289.88;;;16.41;79.08
34177;BME280;20450;49.074;9.158;2023-05-21T03:54:13;99287.47;;;16.45;78.89
34177;BME280;20450;49.074;9.158;2023-05-21T03:56:40;99282.59;;;16.47;78.74
34177;BME280;20450;49.074;9.158;2023-05-21T03:59:07;99289.69;;;16.48;78.88
34177;BME280;20450;49.074;9.158;2023-05-21T04:01:35;99290.22;;;16.45;79.30
34177;BME280;20450;49.074;9.158;2023-05-21T04:04:03;99289.88;;;16.41;79.50
34177;BME280;20450;49.074;9.158;2023-05-21T04:06:33;99289.00;;;16.36;79.05
34177;BME280;20450;49.074;9.158;2023-05-21T04:09:00;99287.91;;;16.37;78.99
34177;BME280;20450;49.074;9.158;2023-05-21T04:11:28;99286.59;;;16.39;79.12
34177;BME280;20450;49.074;9.158;2023-05-21T04:13:55;99294.78;;;16.39;78.86
34177;BME280;20450;49.074;9.158;2023-05-21T04:16:23;99292.31;;;16.43;78.97
34177;BME280;20450;49.074;9.158;2023-05-21T04:18:51;99300.31;;;16.49;78.88
34177;BME280;20450;49.074;9.158;2023-05-21T04:21:19;99298.44;;;16.55;78.59
34177;BME280;20450;49.074;9.158;2023-05-21T04:23:48;99299.59;;;16.59;78.20
34177;BME280;20450;49.074;9.158;2023-05-21T04:26:28;99305.91;;;16.64;77.86
34177;BME280;20450;49.074;9.158;2023-05-21T04:28:57;99295.81;;;16.65;77.87
34177;BME280;20450;49.074;9.158;2023-05-21T04:31:24;99305.06;;;16.64;77.61
34177;BME280;20450;49.074;9.158;2023-05-21T04:34:12;99315.75;;;16.70;77.37
34177;BME280;20450;49.074;9.158;2023-05-21T04:36:40;99310.63;;;16.74;77.52
34177;BME280;20450;49.074;9.158;2023-05-21T04:39:09;99317.19;;;16.78;77.17
34177;BME280;20450;49.074;9.158;2023-05-21T04:41:36;99314.13;;;16.74;76.87
34177;BME280;20450;49.074;9.158;2023-05-21T04:44:05;99326.38;;;16.67;77.44
34177;BME280;20450;49.074;9.158;2023-05-21T04:46:33;99327.38;;;16.56;77.95
34177;BME280;20450;49.074;9.158;2023-05-21T04:49:01;99322.72;;;16.51;78.39
34177;BME280;20450;49.074;9.158;2023-05-21T04:51:28;99325.03;;;16.38;79.04
34177;BME280;20450;49.074;9.158;2023-05-21T04:53:55;99339.16;;;16.35;79.22
34177;BME280;20450;49.074;9.158;2023-05-21T04:56:24;99331.28;;;16.38;79.19
34177;BME280;20450;49.074;9.158;2023-05-21T04:58:51;99331.00;;;16.40;79.00
34177;BME280;20450;49.074;9.158;2023-05-21T05:01:19;99331.53;;;16.37;78.92
34177;BME280;20450;49.074;9.158;2023-05-21T05:03:47;99334.53;;;16.04;79.79
34177;BME280;20450;49.074;9.158;2023-05-21T05:06:15;99341.59;;;16.05;80.52
34177;BME280;20450;49.074;9.158;2023-05-21T05:08:43;99332.66;;;16.09;80.52
34177;BME280;20450;49.074;9.158;2023-05-21T05:11:11;99330.69;;;16.05;80.80
34177;BME280;20450;49.074;9.158;2023-05-21T05:13:39;99330.84;;;16.20;80.61
34177;BME280;20450;49.074;9.158;2023-05-21T05:16:07;99330.16;;;16.34;79.75
34177;BME280;20450;49.074;9.158;2023-05-21T05:18:35;99321.97;;;16.34;79.77
34177;BME280;20450;49.074;9.158;2023-05-21T05:21:02;99320.78;;;16.47;79.38
34177;BME280;20450;49.074;9.158;2023-05-21T05:23:30;99320.84;;;16.57;79.00
34177;BME280;20450;49.074;9.158;2023-05-21T05:25:57;99327.44;;;16.66;78.15
34177;BME280;20450;49.074;9.158;2023-05-21T05:28:24;99327.25;;;16.77;78.17
34177;BME280;20450;49.074;9.158;2023-05-21T05:30:53;99332.81;;;16.92;77.78
34177;BME280;20450;49.074;9.158;2023-05-21T05:33:23;99320.63;;;17.05;77.30
34177;BME280;20450;49.074;9.158;2023-05-21T05:35:50;99327.50;;;17.17;76.75
34177;BME280;20450;49.074;9.158;2023-05-21T05:38:17;99316.41;;;17.34;76.29
34177;BME280;20450;49.074;9.158;2023-05-21T05:40:44;99320.84;;;17.45;75.99
34177;BME280;20450;49.074;9.158;2023-05-21T05:43:11;99320.91;;;17.65;75.46
34177;BME280;20450;49.074;9.158;2023-05-21T05:45:38;99322.88;;;17.85;74.91
34177;BME280;20450;49.074;9.158;2023-05-21T05:48:12;99332.47;;;18.02;74.19
34177;BME280;20450;49.074;9.158;2023-05-21T05:50:40;99331.44;;;18.18;73.08
34177;BME280;20450;49.074;9.158;2023-05-21T05:53:08;99329.00;;;18.37;72.83
34177;BME280;20450;49.074;9.158;2023-05-21T05:55:36;99330.13;;;18.51;72.17
34177;BME280;20450;49.074;9.158;2023-05-21T05:58:04;99326.84;;;18.54;72.09
34177;BME280;20450;49.074;9.158;2023-05-21T06:00:37;99335.03;;;18.74;71.97
34177;BME280;20450;49.074;9.158;2023-05-21T06:03:04;99328.97;;;18.92;71.35
34177;BME280;20450;49.074;9.158;2023-05-21T06:05:33;99325.69;;;19.00;70.71
34177;BME280;20450;49.074;9.158;2023-05-21T06:08:01;99329.75;;;19.17;69.70
34177;BME280;20450;49.074;9.158;2023-05-21T06:10:29;99329.78;;;19.07;70.27
34177;BME280;20450;49.074;9.158;2023-05-21T06:12:56;99330.56;;;19.23;69.94
34177;BME280;20450;49.074;9.158;2023-05-21T06:15:23;99336.34;;;19.11;70.38
34177;BME280;20450;49.074;9.158;2023-05-21T06:17:50;99331.41;;;19.08;70.50
34177;BME280;20450;49.074;9.158;2023-05-21T06:20:18;99333.00;;;19.24;70.36
34177;BME280;20450;49.074;9.158;2023-05-21T06:22:46;99338.25;;;19.31;69.83
34177;BME280;20450;49.074;9.158;2023-05-21T06:25:14;99334.63;;;19.45;69.47
34177;BME280;20450;49.074;9.158;2023-05-21T06:27:42;99330.19;;;19.60;69.45
34177;BME280;20450;49.074;9.158;2023-05-21T06:30:16;99335.84;;;19.78;68.16
34177;BME280;20450;49.074;9.158;2023-05-21T06:32:43;99325.16;;;19.82;68.30
34177;BME280;20450;49.074;9.158;2023-05-21T06:35:11;99326.97;;;20.01;67.06
34177;BME280;20450;49.074;9.158;2023-05-21T06:37:38;99328.19;;;20.24;66.72
34177;BME280;20450;49.074;9.158;2023-05-21T06:40:08;99325.78;;;20.51;65.92
34177;BME280;20450;49.074;9.158;2023-05-21T06:42:36;99331.03;;;20.81;65.03
34177;BME280;20450;49.074;9.158;2023-05-21T06:45:34;99324.69;;;21.14;63.99
34177;BME280;20450;49.074;9.158;2023-05-21T06:48:17;99329.66;;;21.35;62.90
34177;BME280;20450;49.074;9.158;2023-05-21T06:50:46;99332.97;;;21.56;61.45
34177;BME280;20450;49.074;9.158;2023-05-21T06:53:13;99339.03;;;22.00;60.87
34177;BME280;20450;49.074;9.158;2023-05-21T06:55:42;99336.63;;;22.31;58.83
34177;BME280;20450;49.074;9.158;2023-05-21T06:58:19;99331.88;;;22.87;57.11
34177;BME280;20450;49.074;9.158;2023-05-21T07:00:47;99332.91;;;23.50;55.57
34177;BME280;20450;49.074;9.158;2023-05-21T07:03:14;99335.66;;;23.91;53.02
34177;BME280;20450;49.074;9.158;2023-05-21T07:05:41;99334.56;;;24.49;52.43
34177;BME280;20450;49.074;9.158;2023-05-21T07:08:09;99340.06;;;24.85;50.67
34177;BME280;20450;49.074;9.158;2023-05-21T07:10:38;99322.44;;;25.03;49.70
34177;BME280;20450;49.074;9.158;2023-05-21T07:13:06;99320.59;;;25.51;48.45
34177;BME280;20450;49.074;9.158;2023-05-21T07:15:36;99331.56;;;25.73;47.26
34177;BME280;20450;49.074;9.158;2023-05-21T07:18:03;99334.47;;;24.98;49.00
34177;BME280;20450;49.074;9.158;2023-05-21T07:20:30;99335.72;;;24.48;50.17
34177;BME280;20450;49.074;9.158;2023-05-21T07:23:01;99334.41;;;24.10;50.89
34177;BME280;20450;49.074;9.158;2023-05-21T07:25:29;99332.88;;;24.40;49.58
34177;BME280;20450;49.074;9.158;2023-05-21T07:27:56;99335.63;;;24.18;50.46
34177;BME280;20450;49.074;9.158;2023-05-21T07:30:27;99335.63;;;23.23;52.15
34177;BME280;20450;49.074;9.158;2023-05-21T07:32:56;99324.72;;;23.45;52.80
34177;BME280;20450;49.074;9.158;2023-05-21T07:35:23;99319.09;;;24.04;50.66
34177;BME280;20450;49.074;9.158;2023-05-21T07:37:50;99331.31;;;24.47;49.53
34177;BME280;20450;49.074;9.158;2023-05-21T07:40:17;99323.00;;;24.83;48.68
34177;BME280;20450;49.074;9.158;2023-05-21T07:42:46;99320.31;;;25.31;48.05
34177;BME280;20450;49.074;9.158;2023-05-21T07:45:16;99322.72;;;25.54;46.59
34177;BME280;20450;49.074;9.158;2023-05-21T07:47:45;99326.38;;;25.80;46.18
34177;BME280;20450;49.074;9.158;2023-05-21T07:50:13;99318.97;;;26.06;45.99
34177;BME280;20450;49.074;9.158;2023-05-21T07:52:40;99315.88;;;26.16;46.07
34177;BME280;20450;49.074;9.158;2023-05-21T07:55:08;99319.16;;;26.18;45.14
34177;BME280;20450;49.074;9.158;2023-05-21T07:57:37;99320.13;;;26.31;43.99
34177;BME280;20450;49.074;9.158;2023-05-21T08:00:09;99316.38;;;26.35;44.61
34177;BME280;20450;49.074;9.158;2023-05-21T08:02:52;99319.66;;;26.29;45.64
34177;BME280;20450;49.074;9.158;2023-05-21T08:05:20;99315.88;;;26.16;44.55
34177;BME280;20450;49.074;9.158;2023-05-21T08:07:47;99316.69;;;26.25;44.31
34177;BME280;20450;49.074;9.158;2023-05-21T08:10:15;99325.72;;;25.05;45.70
34177;BME280;20450;49.074;9.158;2023-05-21T08:12:47;99312.81;;;25.31;44.57
34177;BME280;20450;49.074;9.158;2023-05-21T08:15:14;99314.81;;;25.78;43.78
34177;BME280;20450;49.074;9.158;2023-05-21T08:17:45;99320.28;;;26.09;42.96
34177;BME280;20450;49.074;9.158;2023-05-21T08:20:14;99313.47;;;25.67;43.41
34177;BME280;20450;49.074;9.158;2023-05-21T08:22:43;99321.66;;;24.58;45.37
34177;BME280;20450;49.074;9.158;2023-05-21T08:25:10;99323.44;;;24.19;45.78
34177;BME280;20450;49.074;9.158;2023-05-21T08:27:37;99316.22;;;24.89;45.49
34177;BME280;20450;49.074;9.158;2023-05-21T08:30:06;99318.97;;;25.20;44.55
34177;BME280;20450;49.074;9.158;2023-05-21T08:32:36;99323.69;;;25.19;44.46
34177;BME280;20450;49.074;9.158;2023-05-21T08:35:05;99326.34;;;24.36;45.52
34177;BME280;20450;49.074;9.158;2023-05-21T08:38:24;99322.59;;;24.98;45.59
34177;BME280;20450;49.074;9.158;2023-05-21T08:40:59;99311.25;;;25.39;44.31
34177;BME280;20450;49.074;9.158;2023-05-21T08:43:28;99320.28;;;25.61;43.65
34177;BME280;20450;49.074;9.158;2023-05-21T08:45:59;99313.34;;;25.72;43.42
34177;BME280;20450;49.074;9.158;2023-05-21T08:48:32;99317.28;;;25.97;43.36
34177;BME280;20450;49.074;9.158;2023-05-21T08:51:00;99314.91;;;26.04;42.29
34177;BME280;20450;49.074;9.158;2023-05-21T08:53:33;99320.22;;;25.92;42.97
34177;BME280;20450;49.074;9.158;2023-05-21T08:56:03;99319.41;;;24.82;44.55
34177;BME280;20450;49.074;9.158;2023-05-21T08:58:46;99323.97;;;24.43;45.68
34177;BME280;20450;49.074;9.158;2023-05-21T09:01:18;99323.25;;;24.37;45.98
34177;BME280;20450;49.074;9.158;2023-05-21T09:03:56;99327.09;;;24.28;46.26
34177;BME280;20450;49.074;9.158;2023-05-21T09:06:34;99332.88;;;24.40;45.90
34177;BME280;20450;49.074;9.158;2023-05-21T09:09:07;99317.53;;;24.47;45.15
34177;BME280;20450;49.074;9.158;2023-05-21T09:11:46;99326.50;;;24.75;45.26
34177;BME280;20450;49.074;9.158;2023-05-21T09:14:13;99323.22;;;25.26;45.59
34177;BME280;20450;49.074;9.158;2023-05-21T09:16:57;99319.19;;;25.71;44.26
34177;BME280;20450;49.074;9.158;2023-05-21T09:19:25;99319.78;;;26.07;43.49
34177;BME280;20450;49.074;9.158;2023-05-21T09:21:52;99318.25;;;25.92;41.82
34177;BME280;20450;49.074;9.158;2023-05-21T09:24:29;99323.09;;;24.56;45.38
34177;BME280;20450;49.074;9.158;2023-05-21T09:26:57;99318.03;;;24.93;43.83
34177;BME280;20450;49.074;9.158;2023-05-21T09:29:25;99314.47;;;25.01;45.40
34177;BME280;20450;49.074;9.158;2023-05-21T09:31:53;99324.72;;;25.71;43.29
34177;BME280;20450;49.074;9.158;2023-05-21T09:34:23;99315.44;;;24.97;43.58
34177;BME280;20450;49.074;9.158;2023-05-21T09:36:51;99316.78;;;25.08;43.78
34177;BME280;20450;49.074;9.158;2023-05-21T09:39:29;99317.31;;;24.88;44.21
34177;BME280;20450;49.074;9.158;2023-05-21T09:42:01;99319.03;;;24.75;45.17
34177;BME280;20450;49.074;9.158;2023-05-21T09:44:28;99313.63;;;25.23;44.43
34177;BME280;20450;49.074;9.158;2023-05-21T09:46:56;99320.91;;;25.50;43.45
34177;BME280;20450;49.074;9.158;2023-05-21T09:49:24;99313.00;;;25.65;43.81
34177;BME280;20450;49.074;9.158;2023-05-21T09:51:54;99316.03;;;25.47;43.81
34177;BME280;20450;49.074;9.158;2023-05-21T09:54:21;99313.38;;;25.02;44.28
34177;BME280;20450;49.074;9.158;2023-05-21T09:56:51;99320.88;;;24.80;44.70
34177;BME280;20450;49.074;9.158;2023-05-21T09:59:19;99309.88;;;25.58;45.47
34177;BME280;20450;49.074;9.158;2023-05-21T10:01:49;99312.41;;;25.94;44.01
34177;BME280;20450;49.074;9.158;2023-05-21T10:04:18;99310.50;;;25.55;42.79
34177;BME280;20450;49.074;9.158;2023-05-21T10:06:48;99304.97;;;26.20;41.99
34177;BME280;20450;49.074;9.158;2023-05-21T10:09:17;99303.00;;;26.71;41.34
34177;BME280;20450;49.074;9.158;2023-05-21T10:11:48;99306.53;;;27.06;40.98
34177;BME280;20450;49.074;9.158;2023-05-21T10:14:22;99292.72;;;26.55;41.28
34177;BME280;20450;49.074;9.158;2023-05-21T10:16:53;99304.16;;;26.36;41.89
34177;BME280;20450;49.074;9.158;2023-05-21T10:19:21;99298.63;;;26.70;41.19
34177;BME280;20450;49.074;9.158;2023-05-21T10:21:51;99295.16;;;27.37;39.45
34177;BME280;20450;49.074;9.158;2023-05-21T10:24:19;99297.59;;;27.76;38.95
34177;BME280;20450;49.074;9.158;2023-05-21T10:26:50;99289.31;;;28.17;37.67
34177;BME280;20450;49.074;9.158;2023-05-21T10:29:19;99284.09;;;28.15;38.33
34177;BME280;20450;49.074;9.158;2023-05-21T10:31:50;99288.03;;;27.19;40.08
34177;BME280;20450;49.074;9.158;2023-05-21T10:34:20;99280.38;;;26.35;41.32
34177;BME280;20450;49.074;9.158;2023-05-21T10:36:51;99286.56;;;27.30;41.23
34177;BME280;20450;49.074;9.158;2023-05-21T10:39:21;99275.31;;;28.13;40.09
34177;BME280;20450;49.074;9.158;2023-05-21T10:42:08;99273.38;;;28.67;37.44
34177;BME280;20450;49.074;9.158;2023-05-21T10:44:59;99274.56;;;29.35;35.30
34177;BME280;20450;49.074;9.158;2023-05-21T10:47:47;99285.31;;;27.77;37.53
34177;BME280;20450;49.074;9.158;2023-05-21T10:50:46;99283.88;;;28.41;37.46
34177;BME280;20450;49.074;9.158;2023-05-21T10:53:43;99283.84;;;28.49;36.79
34177;BME280;20450;49.074;9.158;2023-05-21T10:56:23;99286.53;;;28.91;37.16
34177;BME280;20450;49.074;9.158;2023-05-21T10:59:06;99270.53;;;29.32;36.38
34177;BME280;20450;49.074;9.158;2023-05-21T11:01:42;99275.16;;;29.28;35.69
34177;BME280;20450;49.074;9.158;2023-05-21T11:04:10;99269.59;;;29.28;34.80
34177;BME280;20450;49.074;9.158;2023-05-21T11:06:37;99269.13;;;29.14;35.15
34177;BME280;20450;49.074;9.158;2023-05-21T11:09:13;99270.53;;;29.32;35.22
34177;BME280;20450;49.074;9.158;2023-05-21T11:11:42;99271.22;;;29.41;35.01
34177;BME280;20450;49.074;9.158;2023-05-21T11:14:27;99276.44;;;29.43;35.96
34177;BME280;20450;49.074;9.158;2023-05-21T11:16:57;99264.38;;;29.27;34.07
34177;BME280;20450;49.074;9.158;2023-05-21T11:19:33;99267.59;;;29.05;34.89
34177;BME280;20450;49.074;9.158;2023-05-21T11:22:09;99278.59;;;28.69;36.06
34177;BME280;20450;49.074;9.158;2023-05-21T11:24:49;99264.53;;;28.53;35.45
34177;BME280;20450;49.074;9.158;2023-05-21T11:27:31;99276.16;;;28.67;36.17
34177;BME280;20450;49.074;9.158;2023-05-21T11:30:02;99267.19;;;28.94;35.31
34177;BME280;20450;49.074;9.158;2023-05-21T11:32:35;99265.28;;;29.19;34.35
34177;BME280;20450;49.074;9.158;2023-05-21T11:35:04;99259.63;;;29.39;34.95
34177;BME280;20450;49.074;9.158;2023-05-21T11:37:33;99251.63;;;29.38;34.97
34177;BME280;20450;49.074;9.158;2023-05-21T11:40:23;99263.78;;;29.33;34.64
34177;BME280;20450;49.074;9.158;2023-05-21T11:42:53;99259.50;;;29.48;35.14
34177;BME280;20450;49.074;9.158;2023-05-21T11:45:22;99257.31;;;29.41;34.60
34177;BME280;20450;49.074;9.158;2023-05-21T11:47:55;99249.06;;;29.45;34.56
34177;BME280;20450;49.074;9.158;2023-05-21T11:50:24;99253.56;;;29.61;34.92
34177;BME280;20450;49.074;9.158;2023-05-21T11:52:51;99239.81;;;29.77;35.08
34177;BME280;20450;49.074;9.158;2023-05-21T11:55:22;99255.19;;;29.98;34.07
34177;BME280;20450;49.074;9.158;2023-05-21T11:57:52;99240.34;;;29.94;33.85
34177;BME280;20450;49.074;9.158;2023-05-21T12:00:20;99242.63;;;30.04;33.56
34177;BME280;20450;49.074;9.158;2023-05-21T12:02:50;99248.28;;;29.68;34.08
34177;BME280;20450;49.074;9.158;2023-05-21T12:05:19;99247.56;;;29.59;35.73
34177;BME280;20450;49.074;9.158;2023-05-21T12:07:47;99244.44;;;29.37;34.71
34177;BME280;20450;49.074;9.158;2023-05-21T12:10:15;99246.22;;;28.97;35.27
34177;BME280;20450;49.074;9.158;2023-05-21T12:12:46;99243.38;;;29.17;35.04
34177;BME280;20450;49.074;9.158;2023-05-21T12:15:22;99245.94;;;29.22;35.26
34177;BME280;20450;49.074;9.158;2023-05-21T12:17:51;99242.06;;;29.03;35.07
34177;BME280;20450;49.074;9.158;2023-05-21T12:20:20;99246.03;;;29.14;35.51
34177;BME280;20450;49.074;9.158;2023-05-21T12:22:48;99240.59;;;29.05;35.33
34177;BME280;20450;49.074;9.158;2023-05-21T12:25:17;99242.41;;;29.01;35.90
34177;BME280;20450;49.074;9.158;2023-05-21T12:27:46;99239.69;;;29.13;35.64
34177;BME280;20450;49.074;9.158;2023-05-21T12:30:14;99241.59;;;29.01;36.63
34177;BME280;20450;49.074;9.158;2023-05-21T12:33:11;99240.38;;;29.10;37.06
34177;BME280;20450;49.074;9.158;2023-05-21T12:35:39;99248.09;;;28.93;36.59
34177;BME280;20450;49.074;9.158;2023-05-21T12:38:06;99243.91;;;28.99;37.25
34177;BME280;20450;49.074;9.158;2023-05-21T12:40:35;99233.94;;;28.98;36.60
34177;BME280;20450;49.074;9.158;2023-05-21T12:43:04;99232.91;;;29.02;36.52
34177;BME280;20450;49.074;9.158;2023-05-21T12:45:32;99236.16;;;28.92;36.23
34177;BME280;20450;49.074;9.158;2023-05-21T12:48:01;99239.03;;;28.84;36.33
34177;BME280;20450;49.074;9.158;2023-05-21T12:50:29;99234.84;;;28.78;36.71
34177;BME280;20450;49.074;9.158;2023-05-21T12:52:57;99238.44;;;28.25;34.90
34177;BME280;20450;49.074;9.158;2023-05-21T12:55:24;99243.88;;;28.01;35.06
34177;BME280;20450;49.074;9.158;2023-05-21T12:58:00;99246.78;;;28.25;36.07
34177;BME280;20450;49.074;9.158;2023-05-21T13:00:29;99240.19;;;28.29;35.30
34177;BME280;20450;49.074;9.158;2023-05-21T13:02:58;99243.84;;;28.42;34.09
34177;BME280;20450;49.074;9.158;2023-05-21T13:05:26;99245.53;;;28.55;33.96
34177;BME280;20450;49.074;9.158;2023-05-21T13:07:53;99239.09;;;28.75;33.65
34177;BME280;20450;49.074;9.158;2023-05-21T13:10:21;99243.38;;;28.73;34.19
34177;BME280;20450;49.074;9.158;2023-05-21T13:12:49;99239.03;;;28.96;33.74
34177;BME280;20450;49.074;9.158;2023-05-21T13:15:17;99233.41;;;29.04;33.34
34177;BME280;20450;49.074;9.158;2023-05-21T13:17:45;99235.31;;;28.92;32.52
34177;BME280;20450;49.074;9.158;2023-05-21T13:20:18;99237.06;;;28.96;33.86
34177;BME280;20450;49.074;9.158;2023-05-21T13:22:46;99232.75;;;28.21;33.21